createdAt,value
2023-04-13T00:01:46.361Z,99239.39
2023-04-13T00:04:23.439Z,99248.82
2023-04-13T00:06:58.696Z,99248.37
2023-04-13T00:09:32.421Z,99248.48
2023-04-13T00:12:09.873Z,99243.82
2023-04-13T00:14:39.917Z,99238.05
2023-04-13T00:17:11.657Z,99236.56
2023-04-13T00:19:48.245Z,99232.54
2023-04-13T00:22:18.399Z,99230.83
2023-04-13T00:24:57.700Z,99230.11
2023-04-13T00:27:42.957Z,99232.90
2023-04-13T00:30:18.192Z,99241.81
2023-04-13T00:32:51.849Z,99243.80
2023-04-13T00:35:25.380Z,99240.96
2023-04-13T00:37:56.306Z,99239.20
2023-04-13T00:40:30.688Z,99240.77
2023-04-13T00:43:07.243Z,99239.98
2023-04-13T00:45:47.652Z,99242.66
2023-04-13T00:48:20.906Z,99234.88
2023-04-13T00:50:55.699Z,99235.23
2023-04-13T00:53:30.989Z,99236.56
2023-04-13T00:56:08.014Z,99235.29
2023-04-13T00:58:42.726Z,99232.52
2023-04-13T01:01:12.733Z,99229.33
2023-04-13T01:03:47.219Z,99230.18
2023-04-13T01:06:45.432Z,99223.36
2023-04-13T01:09:29.084Z,99225.10
2023-04-13T01:12:42.034Z,99230.33
2023-04-13T01:15:16.748Z,99228.88
2023-04-13T01:18:07.390Z,99227.85
2023-04-13T01:20:40.719Z,99223.89
2023-04-13T01:23:25.912Z,99217.30
2023-04-13T01:26:00.466Z,99210.45
2023-04-13T01:28:31.312Z,99199.53
2023-04-13T01:31:11.927Z,99193.48
2023-04-13T01:33:47.051Z,99189.41
2023-04-13T01:36:17.016Z,99194.41
2023-04-13T01:38:47.591Z,99198.05
2023-04-13T01:41:18.592Z,99195.80
2023-04-13T01:43:48.098Z,99193.98
2023-04-13T01:46:25.121Z,99196.13
2023-04-13T01:49:21.141Z,99206.98
2023-04-13T01:52:21.388Z,99219.55
2023-04-13T01:54:53.201Z,99217.02
2023-04-13T01:57:24.652Z,99213.94
2023-04-13T01:59:55.272Z,99210.55
2023-04-13T02:02:24.898Z,99209.70
2023-04-13T02:04:54.391Z,99213.61
2023-04-13T02:07:23.880Z,99213.17
2023-04-13T02:09:54.360Z,99211.37
2023-04-13T02:12:24.006Z,99213.68
2023-04-13T02:14:53.443Z,99215.47
2023-04-13T02:17:25.684Z,99210.95
2023-04-13T02:19:56.569Z,99212.89
2023-04-13T02:22:26.168Z,99213.12
2023-04-13T02:24:56.831Z,99215.02
2023-04-13T02:27:26.848Z,99217.06
2023-04-13T02:29:57.439Z,99224.31
2023-04-13T02:32:26.959Z,99225.66
2023-04-13T02:34:56.166Z,99226.67
2023-04-13T02:37:26.077Z,99227.33
2023-04-13T02:39:55.949Z,99227.44
2023-04-13T02:42:25.329Z,99223.92
2023-04-13T02:44:55.285Z,99220.27
2023-04-13T02:47:25.111Z,99220.77
2023-04-13T02:49:54.984Z,99217.85
2023-04-13T02:52:41.414Z,99218.66
2023-04-13T02:55:11.352Z,99218.94
2023-04-13T02:57:55.122Z,99217.48
2023-04-13T03:00:25.741Z,99215.35
2023-04-13T03:02:59.610Z,99217.42
2023-04-13T03:05:33.238Z,99221.13
2023-04-13T03:08:05.477Z,99220.36
2023-04-13T03:10:37.634Z,99219.74
2023-04-13T03:13:07.733Z,99218.52
2023-04-13T03:15:40.872Z,99217.63
2023-04-13T03:18:13.442Z,99219.27
2023-04-13T03:20:43.945Z,99212.58
2023-04-13T03:23:13.621Z,99214.79
2023-04-13T03:25:43.321Z,99215.86
2023-04-13T03:28:14.753Z,99221.14
2023-04-13T03:30:49.430Z,99223.48
2023-04-13T03:33:18.911Z,99228.27
2023-04-13T03:35:48.405Z,99230.63
2023-04-13T03:38:24.554Z,99229.09
2023-04-13T03:40:54.437Z,99229.73
2023-04-13T03:43:23.623Z,99226.61
2023-04-13T03:46:01.114Z,99229.40
2023-04-13T03:48:31.078Z,99221.35
2023-04-13T03:51:01.146Z,99216.08
2023-04-13T03:53:40.108Z,99216.27
2023-04-13T03:56:10.139Z,99213.41
2023-04-13T03:58:41.954Z,99217.08
2023-04-13T04:01:15.107Z,99223.59
2023-04-13T04:03:48.287Z,99227.88
2023-04-13T04:06:17.773Z,99230.29
2023-04-13T04:08:55.884Z,99226.09
2023-04-13T04:11:38.869Z,99223.14
2023-04-13T04:14:10.799Z,99221.78
2023-04-13T04:16:40.932Z,99223.27
2023-04-13T04:19:13.175Z,99217.11
2023-04-13T04:21:45.041Z,99211.42
2023-04-13T04:24:32.787Z,99206.77
2023-04-13T04:27:03.422Z,99207.34
2023-04-13T04:29:36.650Z,99206.61
2023-04-13T04:32:31.360Z,99205.42
2023-04-13T04:35:04.469Z,99206.48
2023-04-13T04:37:40.080Z,99211.86
2023-04-13T04:40:16.710Z,99215.73
2023-04-13T04:42:46.282Z,99218.55
2023-04-13T04:45:38.500Z,99223.27
2023-04-13T04:48:08.330Z,99228.64
2023-04-13T04:50:38.725Z,99236.44
2023-04-13T04:53:12.820Z,99243.98
2023-04-13T04:55:42.450Z,99237.41
2023-04-13T04:58:17.055Z,99238.30
2023-04-13T05:00:53.345Z,99238.36
2023-04-13T05:03:23.225Z,99238.64
2023-04-13T05:05:57.279Z,99241.36
2023-04-13T05:08:32.352Z,99237.61
2023-04-13T05:11:07.572Z,99238.23
2023-04-13T05:13:39.907Z,99241.20
2023-04-13T05:16:14.767Z,99245.55
2023-04-13T05:18:48.814Z,99247.80
2023-04-13T05:21:38.715Z,99246.88
2023-04-13T05:24:10.862Z,99245.34
2023-04-13T05:26:43.703Z,99249.52
2023-04-13T05:29:17.139Z,99255.42
2023-04-13T05:31:47.076Z,99260.95
2023-04-13T05:34:17.123Z,99264.74
2023-04-13T05:36:58.266Z,99261.25
2023-04-13T05:39:28.581Z,99257.77
2023-04-13T05:41:58.155Z,99256.23
2023-04-13T05:44:28.457Z,99253.66
2023-04-13T05:46:58.872Z,99260.73
2023-04-13T05:49:29.314Z,99268.60
2023-04-13T05:51:58.663Z,99265.54
2023-04-13T05:54:37.135Z,99267.73
2023-04-13T05:57:06.643Z,99261.73
2023-04-13T05:59:46.890Z,99255.40
2023-04-13T06:02:20.989Z,99256.29
2023-04-13T06:04:53.970Z,99254.52
2023-04-13T06:07:23.716Z,99255.23
2023-04-13T06:09:52.940Z,99256.43
2023-04-13T06:12:24.155Z,99253.20
2023-04-13T06:14:55.117Z,99251.96
2023-04-13T06:17:24.805Z,99250.48
2023-04-13T06:19:54.698Z,99247.40
2023-04-13T06:22:23.868Z,99248.81
2023-04-13T06:24:53.679Z,99253.09
2023-04-13T06:27:23.049Z,99251.58
2023-04-13T06:29:52.685Z,99255.71
2023-04-13T06:32:22.367Z,99252.59
2023-04-13T06:34:54.750Z,99251.64
2023-04-13T06:37:32.675Z,99256.21
2023-04-13T06:40:15.976Z,99261.76
2023-04-13T06:43:01.230Z,99264.55
2023-04-13T06:45:36.232Z,99270.83
2023-04-13T06:48:08.925Z,99267.78
2023-04-13T06:50:39.399Z,99266.96
2023-04-13T06:53:09.093Z,99261.70
2023-04-13T06:55:38.742Z,99261.21
2023-04-13T06:58:08.147Z,99261.77
2023-04-13T07:00:37.999Z,99267.70
2023-04-13T07:03:07.840Z,99270.31
2023-04-13T07:05:39.096Z,99270.20
2023-04-13T07:08:13.210Z,99267.39
2023-04-13T07:10:43.800Z,99268.52
2023-04-13T07:13:22.436Z,99266.98
2023-04-13T07:15:52.354Z,99264.65
2023-04-13T07:18:21.680Z,99266.33
2023-04-13T07:20:53.721Z,99267.68
2023-04-13T07:23:25.035Z,99270.80
2023-04-13T07:25:54.753Z,99278.98
2023-04-13T07:28:27.490Z,99282.27
2023-04-13T07:30:58.587Z,99282.68
2023-04-13T07:33:28.330Z,99280.77
2023-04-13T07:35:57.428Z,99281.42
2023-04-13T07:38:28.508Z,99278.13
2023-04-13T07:40:57.698Z,99280.70
2023-04-13T07:43:29.983Z,99282.52
2023-04-13T07:46:01.128Z,99285.73
2023-04-13T07:48:30.763Z,99290.41
2023-04-13T07:51:04.276Z,99291.16
2023-04-13T07:53:37.862Z,99298.41
2023-04-13T07:56:08.476Z,99297.65
2023-04-13T07:58:41.994Z,99295.09
2023-04-13T08:01:11.844Z,99293.59
2023-04-13T08:03:41.480Z,99295.46
2023-04-13T08:06:16.969Z,99295.36
2023-04-13T08:08:47.556Z,99296.47
2023-04-13T08:11:17.911Z,99300.37
2023-04-13T08:13:47.979Z,99303.95
2023-04-13T08:16:17.358Z,99306.38
2023-04-13T08:18:47.410Z,99307.88
2023-04-13T08:21:16.724Z,99306.20
2023-04-13T08:23:50.072Z,99308.95
2023-04-13T08:26:22.530Z,99308.77
2023-04-13T08:28:53.201Z,99310.83
2023-04-13T08:31:22.850Z,99314.15
2023-04-13T08:34:02.250Z,99312.08
2023-04-13T08:36:33.700Z,99308.45
2023-04-13T08:39:10.503Z,99309.48
2023-04-13T08:41:47.872Z,99304.14
2023-04-13T08:44:19.253Z,99307.56
2023-04-13T08:46:53.307Z,99312.66
2023-04-13T08:49:29.508Z,99310.67
2023-04-13T08:52:19.916Z,99311.08
2023-04-13T08:54:54.686Z,99315.98
2023-04-13T08:57:31.295Z,99320.41
2023-04-13T09:00:01.678Z,99324.00
2023-04-13T09:02:40.576Z,99328.86
2023-04-13T09:05:18.151Z,99329.24
2023-04-13T09:07:54.044Z,99326.37
2023-04-13T09:10:26.908Z,99326.20
2023-04-13T09:12:56.278Z,99326.64
2023-04-13T09:15:25.896Z,99326.68
2023-04-13T09:18:17.516Z,99323.98
2023-04-13T09:20:59.124Z,99322.92
2023-04-13T09:23:28.661Z,99325.27
2023-04-13T09:26:27.935Z,99324.50
2023-04-13T09:28:58.461Z,99318.73
2023-04-13T09:31:28.583Z,99314.30
2023-04-13T09:33:58.177Z,99307.98
2023-04-13T09:36:29.108Z,99310.62
2023-04-13T09:38:59.123Z,99312.86
2023-04-13T09:41:37.823Z,99313.18
2023-04-13T09:44:28.820Z,99311.83
2023-04-13T09:47:09.783Z,99310.70
2023-04-13T09:49:51.678Z,99311.07
2023-04-13T09:52:27.383Z,99314.86
2023-04-13T09:55:03.243Z,99321.05
2023-04-13T09:57:36.389Z,99321.12
2023-04-13T10:00:25.337Z,99325.66
2023-04-13T10:03:05.799Z,99329.59
2023-04-13T10:05:58.656Z,99332.19
2023-04-13T10:08:39.308Z,99330.20
2023-04-13T10:11:19.375Z,99322.58
2023-04-13T10:14:02.015Z,99322.81
2023-04-13T10:17:17.756Z,99328.94
2023-04-13T10:19:55.601Z,99330.58
2023-04-13T10:22:47.783Z,99330.73
2023-04-13T10:25:33.301Z,99334.62
2023-04-13T10:28:11.428Z,99333.62
2023-04-13T10:30:54.327Z,99332.44
2023-04-13T10:33:33.106Z,99330.89
2023-04-13T10:36:10.974Z,99328.40
2023-04-13T10:38:47.638Z,99331.64
2023-04-13T10:41:27.356Z,99339.08
2023-04-13T10:44:12.431Z,99342.81
2023-04-13T10:46:54.061Z,99341.92
2023-04-13T10:49:37.474Z,99341.29
2023-04-13T10:52:24.449Z,99342.10
2023-04-13T10:54:55.373Z,99340.81
2023-04-13T10:57:25.586Z,99339.81
2023-04-13T11:00:04.502Z,99339.09
2023-04-13T11:02:47.235Z,99342.20
2023-04-13T11:05:27.556Z,99341.65
2023-04-13T11:08:02.624Z,99346.35
2023-04-13T11:10:42.612Z,99347.04
2023-04-13T11:13:15.917Z,99349.21
2023-04-13T11:15:50.282Z,99345.36
2023-04-13T11:18:35.103Z,99345.55
2023-04-13T11:21:20.985Z,99347.92
2023-04-13T11:24:12.466Z,99344.27
2023-04-13T11:26:47.542Z,99344.60
2023-04-13T11:29:25.459Z,99346.30
2023-04-13T11:32:11.793Z,99343.85
2023-04-13T11:34:44.305Z,99348.05
2023-04-13T11:37:21.522Z,99349.67
2023-04-13T11:39:59.804Z,99353.30
2023-04-13T11:42:45.157Z,99356.84
2023-04-13T11:45:31.757Z,99358.11
2023-04-13T11:48:09.980Z,99356.58
2023-04-13T11:50:43.810Z,99361.30
2023-04-13T11:53:39.807Z,99364.58
2023-04-13T11:56:10.912Z,99363.86
2023-04-13T11:58:50.365Z,99364.73
2023-04-13T12:01:26.976Z,99366.92
2023-04-13T12:04:21.315Z,99370.96
2023-04-13T12:07:03.995Z,99370.52
2023-04-13T12:15:24.297Z,99377.94
2023-04-13T12:18:15.864Z,99380.86
2023-04-13T12:20:53.854Z,99382.85
2023-04-13T12:23:28.286Z,99379.58
2023-04-13T12:26:25.994Z,99380.05
2023-04-13T12:28:58.009Z,99371.97
2023-04-13T12:31:40.844Z,99369.55
2023-04-13T12:34:15.357Z,99366.01
2023-04-13T12:36:49.734Z,99366.58
2023-04-13T12:39:30.633Z,99366.73
2023-04-13T12:42:05.352Z,99369.89
2023-04-13T12:44:40.270Z,99371.45
2023-04-13T12:47:11.586Z,99376.52
2023-04-13T12:49:41.365Z,99379.05
2023-04-13T12:52:11.210Z,99373.05
2023-04-13T12:54:44.700Z,99370.19
2023-04-13T12:57:20.118Z,99369.39
2023-04-13T12:59:57.370Z,99373.90
2023-04-13T13:02:37.134Z,99370.08
2023-04-13T13:05:09.892Z,99369.48
2023-04-13T13:07:42.179Z,99369.19
2023-04-13T13:10:25.861Z,99367.64
2023-04-13T13:13:04.280Z,99368.59
2023-04-13T13:15:37.193Z,99369.08
2023-04-13T13:18:15.626Z,99363.33
2023-04-13T13:20:49.878Z,99358.46
2023-04-13T13:23:21.463Z,99360.48
2023-04-13T13:26:17.389Z,99361.73
2023-04-13T13:28:50.588Z,99364.24
2023-04-13T13:31:23.675Z,99364.79
2023-04-13T13:33:56.861Z,99360.92
2023-04-13T13:36:29.309Z,99353.86
2023-04-13T13:39:00.161Z,99352.48
2023-04-13T13:41:32.747Z,99357.55
2023-04-13T13:44:03.453Z,99360.64
2023-04-13T13:46:33.802Z,99360.14
2023-04-13T13:49:08.371Z,99359.71
2023-04-13T13:52:03.324Z,99357.38
2023-04-13T13:54:34.797Z,99363.37
2023-04-13T13:57:06.571Z,99366.48
2023-04-13T13:59:35.645Z,99370.11
2023-04-13T14:02:04.991Z,99373.84
2023-04-13T14:04:34.837Z,99376.88
2023-04-13T14:07:06.720Z,99380.89
2023-04-13T14:09:36.827Z,99384.16
2023-04-13T14:12:15.626Z,99387.34
2023-04-13T14:14:46.621Z,99387.20
2023-04-13T14:17:19.496Z,99386.48
2023-04-13T14:19:51.777Z,99388.90
2023-04-13T14:22:24.472Z,99392.95
2023-04-13T14:24:57.221Z,99397.84
2023-04-13T14:27:29.367Z,99396.41
2023-04-13T14:30:05.404Z,99399.89
2023-04-13T14:32:35.221Z,99406.06
2023-04-13T14:35:05.582Z,99413.54
2023-04-13T14:37:41.002Z,99414.50
2023-04-13T14:40:17.456Z,99415.77
2023-04-13T14:42:55.070Z,99424.17
2023-04-13T14:45:24.948Z,99426.02
2023-04-13T14:47:59.606Z,99429.39
2023-04-13T14:50:32.375Z,99433.94
2023-04-13T14:53:11.507Z,99437.70
2023-04-13T14:55:41.983Z,99440.33
2023-04-13T14:58:16.134Z,99444.13
2023-04-13T15:00:48.668Z,99448.37
2023-04-13T15:03:27.443Z,99449.07
2023-04-13T15:06:04.330Z,99449.40
2023-04-13T15:08:36.568Z,99448.99
2023-04-13T15:11:06.910Z,99448.79
2023-04-13T15:13:39.065Z,99449.42
2023-04-13T15:16:09.266Z,99450.53
2023-04-13T15:18:41.889Z,99447.27
2023-04-13T15:21:12.175Z,99448.10
2023-04-13T15:23:48.055Z,99450.33
2023-04-13T15:26:43.180Z,99447.71
2023-04-13T15:29:17.358Z,99449.00
2023-04-13T15:31:49.909Z,99450.84
2023-04-13T15:34:21.607Z,99448.45
2023-04-13T15:36:57.890Z,99453.33
2023-04-13T15:39:28.853Z,99456.61
2023-04-13T15:42:10.207Z,99456.86
2023-04-13T15:44:44.908Z,99457.73
2023-04-13T15:47:24.045Z,99456.58
2023-04-13T15:50:08.050Z,99457.88
2023-04-13T15:52:41.469Z,99460.14
2023-04-13T15:55:19.093Z,99455.44
2023-04-13T15:57:57.557Z,99461.73
2023-04-13T16:00:32.361Z,99465.64
2023-04-13T16:03:15.063Z,99470.13
2023-04-13T16:05:50.220Z,99466.95
2023-04-13T16:08:23.914Z,99466.15
2023-04-13T16:11:14.550Z,99469.11
2023-04-13T16:13:50.347Z,99468.99
2023-04-13T16:16:44.600Z,99468.33
2023-04-13T16:19:37.820Z,99473.55
2023-04-13T16:22:12.313Z,99476.89
2023-04-13T16:25:09.395Z,99481.86
2023-04-13T16:27:55.694Z,99477.44
2023-04-13T16:30:33.836Z,99477.66
2023-04-13T16:33:09.662Z,99478.77
2023-04-13T16:35:47.456Z,99479.27
2023-04-13T16:38:22.382Z,99479.27
2023-04-13T16:41:11.176Z,99481.31
2023-04-13T16:43:52.917Z,99481.20
2023-04-13T16:46:26.136Z,99479.79
2023-04-13T16:48:59.541Z,99480.00
2023-04-13T16:51:39.315Z,99478.17
2023-04-13T16:54:22.754Z,99480.30
2023-04-13T16:56:58.576Z,99490.13
2023-04-13T16:59:31.272Z,99493.09
2023-04-13T17:02:01.287Z,99492.67
2023-04-13T17:04:33.590Z,99495.61
2023-04-13T17:07:13.828Z,99500.05
2023-04-13T17:09:58.046Z,99501.20
2023-04-13T17:12:34.903Z,99504.31
2023-04-13T17:15:11.132Z,99507.92
2023-04-13T17:17:44.549Z,99511.23
2023-04-13T17:20:21.556Z,99511.81
2023-04-13T17:22:58.758Z,99511.55
2023-04-13T17:25:43.046Z,99515.09
2023-04-13T17:28:22.236Z,99516.65
2023-04-13T17:30:56.060Z,99522.91
2023-04-13T17:33:35.208Z,99529.67
2023-04-13T17:36:22.332Z,99532.34
2023-04-13T17:39:12.824Z,99535.50
2023-04-13T17:42:03.099Z,99538.33
2023-04-13T17:45:32.982Z,99543.63
2023-04-13T17:48:53.324Z,99546.05
2023-04-13T17:52:08.203Z,99545.07
2023-04-13T17:55:31.722Z,99549.70
2023-04-13T17:58:43.756Z,99551.61
2023-04-13T18:01:32.112Z,99555.51
2023-04-13T18:04:24.145Z,99558.55
2023-04-13T18:07:12.680Z,99559.16
2023-04-13T18:09:49.187Z,99565.56
2023-04-13T18:12:33.320Z,99569.15
2023-04-13T18:15:10.789Z,99570.10
2023-04-13T18:19:13.725Z,99562.67
2023-04-13T18:23:10.554Z,99567.04
2023-04-13T18:25:58.333Z,99572.30
2023-04-13T18:28:39.003Z,99572.98
2023-04-13T18:31:17.134Z,99575.02
2023-04-13T18:33:48.224Z,99578.20
2023-04-13T18:36:42.934Z,99582.43
2023-04-13T18:39:37.887Z,99580.27
2023-04-13T18:42:12.530Z,99583.56
2023-04-13T18:44:46.374Z,99582.20
2023-04-13T18:47:22.733Z,99582.64
2023-04-13T18:50:02.364Z,99583.52
2023-04-13T18:52:46.729Z,99584.52
2023-04-13T18:55:20.267Z,99583.21
2023-04-13T18:58:03.715Z,99581.79
2023-04-13T19:03:47.976Z,99589.16
2023-04-13T19:06:32.408Z,99594.41
2023-04-13T19:09:23.073Z,99596.13
2023-04-13T19:15:24.418Z,99594.39
2023-04-13T19:18:15.380Z,99595.08
2023-04-13T19:21:03.908Z,99599.27
2023-04-13T19:24:08.165Z,99598.95
2023-04-13T19:27:03.848Z,99597.81
2023-04-13T19:29:37.718Z,99595.80
2023-04-13T19:32:17.730Z,99597.11
2023-04-13T19:34:53.161Z,99594.42
2023-04-13T19:37:27.001Z,99602.16
2023-04-13T19:40:08.241Z,99603.27
2023-04-13T19:45:31.848Z,99601.70
2023-04-13T19:48:21.979Z,99604.64
2023-04-13T19:51:15.277Z,99605.66
2023-04-13T19:54:11.952Z,99606.50
2023-04-13T19:56:43.773Z,99608.06
2023-04-13T19:59:19.520Z,99610.61
2023-04-13T20:02:01.133Z,99613.27
2023-04-13T20:04:38.658Z,99614.83
2023-04-13T20:07:15.024Z,99616.49
2023-04-13T20:09:52.116Z,99619.36
2023-04-13T20:12:26.989Z,99621.33
2023-04-13T20:15:01.068Z,99621.35
2023-04-13T20:17:53.685Z,99624.66
2023-04-13T20:20:45.748Z,99625.65
2023-04-13T20:23:33.669Z,99623.96
2023-04-13T20:26:22.312Z,99623.31
2023-04-13T20:29:01.689Z,99625.04
2023-04-13T20:31:50.706Z,99625.89
2023-04-13T20:34:37.967Z,99624.35
2023-04-13T20:37:47.929Z,99623.05
2023-04-13T20:40:33.985Z,99623.33
2023-04-13T20:43:07.045Z,99623.73
2023-04-13T20:45:52.712Z,99626.47
2023-04-13T20:51:27.145Z,99621.21
2023-04-13T20:54:26.343Z,99621.99
2023-04-13T20:57:11.822Z,99621.77
2023-04-13T20:59:45.241Z,99621.08
2023-04-13T21:02:32.103Z,99617.66
2023-04-13T21:05:08.443Z,99616.34
2023-04-13T21:07:57.006Z,99614.61
2023-04-13T21:10:35.882Z,99616.18
2023-04-13T21:13:20.254Z,99615.75
2023-04-13T21:15:59.057Z,99616.44
2023-04-13T21:19:00.417Z,99616.20
2023-04-13T21:21:43.027Z,99614.54
2023-04-13T21:24:34.625Z,99615.77
2023-04-13T21:27:18.674Z,99614.05
2023-04-13T21:29:48.696Z,99611.77
2023-04-13T21:32:34.080Z,99611.39
2023-04-13T21:35:09.315Z,99609.28
2023-04-13T21:37:57.230Z,99605.80
2023-04-13T21:40:33.980Z,99600.30
2023-04-13T21:43:13.669Z,99601.35
2023-04-13T21:45:52.786Z,99603.73
2023-04-13T21:48:33.261Z,99604.90
2023-04-13T21:51:09.016Z,99605.75
2023-04-13T21:53:42.824Z,99607.98
2023-04-13T21:56:24.955Z,99608.61
2023-04-13T21:58:58.310Z,99606.85
2023-04-13T22:04:19.612Z,99601.97
2023-04-13T22:06:53.768Z,99605.73
2023-04-13T22:09:31.881Z,99604.65
2023-04-13T22:12:09.686Z,99604.31
2023-04-13T22:14:48.115Z,99602.77
2023-04-13T22:17:30.643Z,99597.89
2023-04-13T22:20:07.031Z,99595.64
2023-04-13T22:22:41.924Z,99591.54
2023-04-13T22:25:14.083Z,99592.92
2023-04-13T22:27:46.927Z,99592.01
2023-04-13T22:30:26.354Z,99595.06
2023-04-13T22:33:01.879Z,99593.77
2023-04-13T22:35:37.098Z,99591.09
2023-04-13T22:38:10.252Z,99590.75
2023-04-13T22:40:49.240Z,99596.75
2023-04-13T22:43:18.808Z,99595.55
2023-04-13T22:45:58.591Z,99598.66
2023-04-13T22:48:42.102Z,99602.04
2023-04-13T22:51:20.611Z,99607.77
2023-04-13T22:53:56.560Z,99604.20
2023-04-13T22:56:29.866Z,99602.88
2023-04-13T22:59:04.018Z,99598.89
2023-04-13T23:01:46.709Z,99594.86
2023-04-13T23:04:19.961Z,99592.59
2023-04-13T23:07:05.712Z,99589.96
2023-04-13T23:09:38.897Z,99590.19
2023-04-13T23:12:16.317Z,99588.39
2023-04-13T23:14:48.080Z,99585.15
2023-04-13T23:17:34.083Z,99578.17
2023-04-13T23:20:07.369Z,99577.07
2023-04-13T23:22:42.807Z,99573.56
2023-04-13T23:25:20.305Z,99567.64
2023-04-13T23:28:07.589Z,99569.38
2023-04-13T23:30:42.469Z,99569.41
2023-04-13T23:33:21.618Z,99565.98
2023-04-13T23:36:03.889Z,99566.17
2023-04-13T23:38:39.125Z,99566.38
2023-04-13T23:41:11.468Z,99562.58
2023-04-13T23:43:47.560Z,99560.98
2023-04-13T23:46:23.936Z,99554.77
2023-04-13T23:48:58.239Z,99548.70
2023-04-13T23:51:44.595Z,99546.66
2023-04-13T23:54:25.817Z,99544.20
2023-04-13T23:57:13.854Z,99544.49
